Relevés horaires Matro (Suisse)


Relevés horaires à Matro - Vendredi 31 Oct. 2014
Heure UTC1 Température [°C] Vent [km/h] Hum. [%] Pres.4 [hPa] Visi. [Km] Nébu. [octa] Préc.5 [mm] Cond.
2m. Res. Ros. Dir.2 Vit. Moy. Raf.3
23:00 7.1 4.6 -2.3 NO 13.0 14.8 14.8 51 850(-0.3/3h) -- -- -- --
22:00 7.2 4.5 -2.0 NNO 14.8 16.7 18.5 52 850(0.1/3h) -- -- -- --
21:00 7.6 4.5 -2.1 ONO 18.5 27.8 35.2 50 850(0.0/3h) -- -- -- --
20:00 7.3 4.1 -1.1 NNO 18.5 27.8 31.5 55 850(0.3/3h) -- -- -- --
19:00 7.1 3 -0.7 NNO 27.8 27.8 35.2 58 850(0.3/3h) -- -- -- --
18:00 7.4 3.4 -0.9 NNO 27.8 27.8 37.0 56 850(0.2/3h) -- -- -- --
17:00 7.3 3.4 -1.0 NNO 25.9 27.8 35.2 56 850(0.1/3h) -- -- -- --
16:00 7.8 3.9 -1.1 NO 27.8 27.8 33.3 53 850(-0.2/3h) -- -- -- --
15:00 8.2 4.7 -1.0 NNO 24.1 25.9 35.2 52 850(-0.3/3h) -- -- -- --
14:00 8.3 4.8 -1.2 NNO 24.1 25.9 35.2 51 850(-0.5/3h) -- -- -- --
13:00 8.4 5 -1.6 NNO 24.1 24.1 33.3 49 850(-0.4/3h) -- -- -- --
12:00 8.5 5.6 -2.1 NNO 18.5 27.8 40.7 47 850(0.2/3h) -- -- -- --
11:00 8.3 4.7 -2.5 NNO 25.9 25.9 40.7 46 850(0.7/3h) -- -- -- --
10:00 8.2 5.3 -2.5 NO 18.5 22.2 33.3 47 850(0.9/3h) -- -- -- --
09:00 7.8 5 -3.1 NNO 16.7 27.8 38.9 46 850(1.1/3h) -- -- -- --
08:00 7.6 4.1 -3.7 NO 22.2 25.9 33.3 45 850(0.5/3h) -- -- -- --
07:00 7.0 3 -4.1 NNO 25.9 27.8 38.9 45 850(0.2/3h) -- -- -- --
06:00 6.7 2.5 -4.0 NO 27.8 27.8 35.2 46 850(-0.3/3h) -- -- -- --
05:00 6.8 2.7 -3.9 NNO 25.9 25.9 35.2 46 850(-0.1/3h) -- -- -- --
04:00 6.7 3.2 -4.1 NNO 20.4 22.2 31.5 46 850(-0.3/3h) -- -- -- --
03:00 6.7 3.2 -4.0 NO 20.4 25.9 31.5 46 850(-0.3/3h) -- -- -- --
02:00 6.2 2.8 -2.8 NO 18.5 20.4 25.9 52 850(-0.2/3h) -- -- -- --
01:00 5.8 2.3 -2.0 NO 18.5 25.9 31.5 57 850(0.1/3h) -- -- -- --
00:00 5.8 2.3 -1.5 NO 18.5 25.9 33.3 59 850(0.2/3h) -- -- -- --

1 Coordinated Universal Time. Actuellement il est 16:00 locale et 14:00 UTC.

2 Le vent souffle depuis la direction indiquée vers la direction oposée.

3 Les rafales max. sont disponible 40 min après l'heure du relevé.

4 Pour les stations d'altitude (plus de 600m) le géopotentiel du niveau le plus proche de la pression obligatoire est indiqué.

5 Les stations disposant d'un diffuseur peuvent indiquer "trace". Cela signifie que des précipitations ont touchés le sol mais que la quantité est inférieure à 0.1 mm.

Copyright

Les données affichées sur cette page sont la propriété exclusive de Météo Suisse.

Récapitulatif de la journée
Température [°C] Vent [km/h] Ensoleillement4 [h] Precipitations totale5 [mm] Pression [Hpa]
Min1 Max.2 Moy.3 Max. Min Max.
5.3 8.6 25.2 40.7 8 h 48 min 0 850.0 850.0

1 Température minimale relevée entre 18:00 UTC la veille et 18:00 UTC le jour donné.

2 Température maximale relevée entre 06:00 UTC le jour donné et 06:00 UTC le lendemain.

3 Vent moyen de la journée basé sur les relevés horaires.

4 Ensoleillement en heures relevé entre 06:00 UTC la veille et 06:00 UTC le jour donné.

5 Précipitations totales tombées entre 06:00 UTC la jour donné et 06:00 UTC le lendemain.

Graphiques horaires